createdAt,value
2023-05-12T00:01:05.512Z,99.47
2023-05-12T00:03:33.072Z,99.85
2023-05-12T00:06:04.509Z,99.57
2023-05-12T00:08:32.168Z,99.89
2023-05-12T00:10:59.629Z,100.00
2023-05-12T00:13:27.340Z,100.00
2023-05-12T00:15:56.696Z,100.00
2023-05-12T00:18:24.300Z,100.00
2023-05-12T00:20:54.076Z,99.89
2023-05-12T00:23:23.291Z,100.00
2023-05-12T00:25:51.024Z,100.00
2023-05-12T00:28:18.784Z,100.00
2023-05-12T00:30:46.331Z,100.00
2023-05-12T00:33:14.089Z,99.94
2023-05-12T00:35:41.579Z,100.00
2023-05-12T00:38:09.165Z,99.80
2023-05-12T00:40:37.979Z,99.55
2023-05-12T00:43:05.611Z,99.89
2023-05-12T00:45:33.168Z,100.00
2023-05-12T00:48:00.768Z,99.24
2023-05-12T00:50:28.557Z,99.88
2023-05-12T00:52:56.137Z,99.60
2023-05-12T00:55:23.615Z,99.56
2023-05-12T00:57:52.507Z,99.85
2023-05-12T01:00:20.439Z,100.00
2023-05-12T01:02:48.222Z,99.95
2023-05-12T01:05:15.739Z,99.80
2023-05-12T01:07:43.325Z,100.00
2023-05-12T01:10:28.792Z,100.00
2023-05-12T01:12:57.773Z,100.00
2023-05-12T01:15:25.349Z,100.00
2023-05-12T01:17:54.179Z,100.00
2023-05-12T01:20:22.170Z,100.00
2023-05-12T01:22:49.788Z,100.00
2023-05-12T01:25:17.348Z,100.00
2023-05-12T01:27:46.241Z,100.00
2023-05-12T01:30:16.346Z,100.00
2023-05-12T01:32:43.889Z,100.00
2023-05-12T01:35:11.470Z,100.00
2023-05-12T01:37:39.022Z,100.00
2023-05-12T01:40:07.339Z,100.00
2023-05-12T01:42:34.825Z,99.86
2023-05-12T01:45:03.827Z,100.00
2023-05-12T01:47:31.857Z,100.00
2023-05-12T01:49:59.513Z,100.00
2023-05-12T01:52:28.112Z,100.00
2023-05-12T01:54:55.522Z,100.00
2023-05-12T01:57:23.193Z,100.00
2023-05-12T01:59:50.707Z,100.00
2023-05-12T02:02:19.660Z,100.00
2023-05-12T02:04:47.407Z,100.00
2023-05-12T02:07:15.658Z,100.00
2023-05-12T02:09:43.218Z,100.00
2023-05-12T02:12:10.685Z,100.00
2023-05-12T02:14:38.272Z,100.00
2023-05-12T02:17:05.988Z,100.00
2023-05-12T02:19:34.852Z,100.00
2023-05-12T02:22:02.304Z,100.00
2023-05-12T02:24:29.784Z,100.00
2023-05-12T02:26:57.361Z,100.00
2023-05-12T02:29:24.824Z,100.00
2023-05-12T02:31:52.471Z,99.55
2023-05-12T02:34:20.023Z,100.00
2023-05-12T02:36:48.915Z,99.99
2023-05-12T02:39:16.529Z,100.00
2023-05-12T02:41:44.024Z,100.00
2023-05-12T02:44:11.636Z,100.00
2023-05-12T02:46:39.092Z,100.00
2023-05-12T02:49:06.604Z,100.00
2023-05-12T02:51:34.080Z,100.00
2023-05-12T02:54:03.018Z,100.00
2023-05-12T02:56:33.221Z,100.00
2023-05-12T02:59:01.545Z,100.00
2023-05-12T03:01:29.137Z,100.00
2023-05-12T03:03:56.727Z,100.00
2023-05-12T03:06:24.258Z,100.00
2023-05-12T03:08:51.763Z,100.00
2023-05-12T03:11:20.759Z,100.00
2023-05-12T03:13:48.838Z,100.00
2023-05-12T03:16:19.445Z,100.00
2023-05-12T03:18:47.171Z,100.00
2023-05-12T03:21:14.636Z,100.00
2023-05-12T03:23:42.190Z,100.00
2023-05-12T03:26:09.722Z,100.00
2023-05-12T03:28:38.601Z,100.00
2023-05-12T03:31:06.110Z,100.00
2023-05-12T03:33:33.576Z,100.00
2023-05-12T03:36:01.088Z,100.00
2023-05-12T03:38:28.593Z,100.00
2023-05-12T03:41:04.147Z,100.00
2023-05-12T03:43:31.741Z,100.00
2023-05-12T03:46:00.829Z,100.00
2023-05-12T03:48:28.491Z,100.00
2023-05-12T03:50:56.034Z,100.00
2023-05-12T03:53:23.518Z,100.00
2023-05-12T03:55:51.165Z,100.00
2023-05-12T03:58:18.752Z,100.00
2023-05-12T04:00:46.662Z,100.00
2023-05-12T04:03:15.628Z,100.00
2023-05-12T04:05:43.247Z,100.00
2023-05-12T04:08:10.770Z,100.00
2023-05-12T04:10:39.616Z,100.00
2023-05-12T04:13:08.127Z,100.00
2023-05-12T04:15:35.659Z,100.00
2023-05-12T04:18:03.650Z,100.00
2023-05-12T04:20:32.604Z,100.00
2023-05-12T04:23:00.212Z,100.00
2023-05-12T04:25:27.800Z,100.00
2023-05-12T04:27:55.340Z,100.00
2023-05-12T04:30:23.007Z,100.00
2023-05-12T04:32:50.510Z,100.00
2023-05-12T04:35:17.942Z,100.00
2023-05-12T04:37:46.815Z,100.00
2023-05-12T04:40:14.394Z,100.00
2023-05-12T04:42:41.916Z,100.00
2023-05-12T04:45:10.064Z,100.00
2023-05-12T04:47:37.636Z,100.00
2023-05-12T04:50:05.714Z,100.00
2023-05-12T04:52:33.238Z,100.00
2023-05-12T04:55:02.180Z,100.00
2023-05-12T04:57:29.665Z,100.00
2023-05-12T04:59:59.143Z,99.00
2023-05-12T05:02:26.782Z,99.60
2023-05-12T05:04:54.508Z,99.73
2023-05-12T05:07:22.129Z,99.82
2023-05-12T05:09:49.603Z,100.00
2023-05-12T05:12:18.556Z,100.00
2023-05-12T05:14:46.047Z,100.00
2023-05-12T05:17:13.604Z,100.00
2023-05-12T05:19:55.144Z,100.00
2023-05-12T05:22:26.366Z,99.39
2023-05-12T05:24:53.964Z,99.70
2023-05-12T05:27:22.845Z,100.00
2023-05-12T05:29:50.410Z,100.00
2023-05-12T05:32:18.212Z,100.00
2023-05-12T05:34:45.780Z,100.00
2023-05-12T05:37:13.333Z,100.00
2023-05-12T05:39:40.965Z,100.00
2023-05-12T05:42:08.523Z,100.00
2023-05-12T05:44:37.468Z,100.00
2023-05-12T05:47:05.247Z,99.43
2023-05-12T05:49:33.222Z,100.00
2023-05-12T05:52:00.649Z,100.00
2023-05-12T05:54:28.165Z,100.00
2023-05-12T05:56:55.573Z,100.00
2023-05-12T05:59:23.176Z,100.00
2023-05-12T06:01:52.222Z,100.00
2023-05-12T06:04:19.818Z,100.00
2023-05-12T06:06:47.373Z,100.00
2023-05-12T06:09:15.779Z,100.00
2023-05-12T06:11:43.220Z,100.00
2023-05-12T06:14:11.466Z,100.00
2023-05-12T06:16:39.475Z,100.00
2023-05-12T06:19:08.571Z,100.00
2023-05-12T06:21:36.190Z,100.00
2023-05-12T06:24:04.243Z,100.00
2023-05-12T06:26:31.774Z,98.80
2023-05-12T06:28:59.273Z,99.27
2023-05-12T06:31:27.027Z,99.82
2023-05-12T06:33:54.514Z,99.14
2023-05-12T06:36:23.602Z,99.13
2023-05-12T06:38:52.169Z,99.31
2023-05-12T06:41:19.629Z,97.90
2023-05-12T06:43:47.122Z,98.33
2023-05-12T06:46:14.818Z,97.95
2023-05-12T06:48:42.378Z,98.88
2023-05-12T06:51:09.790Z,98.15
2023-05-12T06:53:50.555Z,99.37
2023-05-12T06:56:18.304Z,99.27
2023-05-12T06:58:46.395Z,98.86
2023-05-12T07:01:14.091Z,98.10
2023-05-12T07:03:41.833Z,98.11
2023-05-12T07:06:11.123Z,97.61
2023-05-12T07:08:38.871Z,97.44
2023-05-12T07:11:07.997Z,97.12
2023-05-12T07:13:35.765Z,97.55
2023-05-12T07:16:03.536Z,96.72
2023-05-12T07:18:32.077Z,96.60
2023-05-12T07:20:59.866Z,96.32
2023-05-12T07:23:27.589Z,95.84
2023-05-12T07:25:55.277Z,95.38
2023-05-12T07:28:24.639Z,95.00
2023-05-12T07:30:52.344Z,94.74
2023-05-12T07:33:20.349Z,94.64
2023-05-12T07:35:48.162Z,94.67
2023-05-12T07:38:15.999Z,95.43
2023-05-12T07:40:44.665Z,95.72
2023-05-12T07:43:12.447Z,95.45
2023-05-12T07:45:41.540Z,94.45
2023-05-12T07:48:09.263Z,94.43
2023-05-12T07:50:37.081Z,93.48
2023-05-12T07:53:05.759Z,91.75
2023-05-12T07:55:34.445Z,92.95
2023-05-12T07:58:02.156Z,92.38
2023-05-12T08:00:29.956Z,91.79
2023-05-12T08:02:59.336Z,92.44
2023-05-12T08:05:27.056Z,93.85
2023-05-12T08:07:54.695Z,92.77
2023-05-12T08:10:25.137Z,92.41
2023-05-12T08:12:52.832Z,91.82
2023-05-12T08:15:20.708Z,90.59
2023-05-12T08:17:48.750Z,90.84
2023-05-12T08:20:17.919Z,89.84
2023-05-12T08:22:47.814Z,90.47
2023-05-12T08:25:15.680Z,90.72
2023-05-12T08:27:43.410Z,90.47
2023-05-12T08:30:12.308Z,88.70
2023-05-12T08:32:40.283Z,88.93
2023-05-12T08:35:08.492Z,89.51
2023-05-12T08:37:37.520Z,88.69
2023-05-12T08:40:11.893Z,88.48
2023-05-12T08:42:45.733Z,88.85
2023-05-12T08:45:13.526Z,86.51
2023-05-12T08:47:43.664Z,84.48
2023-05-12T08:50:12.134Z,85.94
2023-05-12T08:52:41.233Z,86.52
2023-05-12T08:55:10.879Z,85.14
2023-05-12T08:57:39.755Z,86.16
2023-05-12T09:00:09.972Z,85.94
2023-05-12T09:02:52.250Z,85.14
2023-05-12T09:05:22.694Z,83.89
2023-05-12T09:07:53.204Z,84.60
2023-05-12T09:10:34.458Z,84.39
2023-05-12T09:13:04.878Z,85.35
2023-05-12T09:15:37.400Z,85.59
2023-05-12T09:18:05.451Z,83.93
2023-05-12T09:20:33.142Z,83.75
2023-05-12T09:23:13.908Z,79.11
2023-05-12T09:25:41.686Z,81.81
2023-05-12T09:28:09.891Z,79.78
2023-05-12T09:30:38.601Z,81.65
2023-05-12T09:33:07.475Z,80.26
2023-05-12T09:35:40.135Z,79.53
2023-05-12T09:38:10.169Z,80.28
2023-05-12T09:40:38.318Z,79.81
2023-05-12T09:43:07.186Z,76.03
2023-05-12T09:45:37.023Z,76.15
2023-05-12T09:48:11.504Z,78.82
2023-05-12T09:50:48.121Z,79.40
2023-05-12T09:53:19.155Z,80.31
2023-05-12T09:55:48.505Z,79.13
2023-05-12T09:58:17.970Z,77.82
2023-05-12T10:03:18.692Z,78.45
2023-05-12T10:05:50.225Z,80.03
2023-05-12T10:08:22.132Z,77.63
2023-05-12T10:10:52.235Z,76.15
2023-05-12T10:13:20.261Z,75.49
2023-05-12T10:15:49.756Z,77.08
2023-05-12T10:18:18.274Z,76.25
2023-05-12T10:20:46.952Z,74.95
2023-05-12T10:23:14.957Z,76.69
2023-05-12T10:25:45.761Z,75.95
2023-05-12T10:28:13.443Z,78.75
2023-05-12T10:30:41.658Z,76.10
2023-05-12T10:33:11.527Z,75.68
2023-05-12T10:35:40.515Z,75.50
2023-05-12T10:38:08.940Z,76.93
2023-05-12T10:40:36.869Z,75.13
2023-05-12T10:43:06.349Z,75.56
2023-05-12T10:45:37.386Z,76.16
2023-05-12T10:48:09.215Z,76.52
2023-05-12T10:50:37.045Z,75.42
2023-05-12T10:53:05.098Z,71.92
2023-05-12T10:55:34.951Z,73.83
2023-05-12T10:58:08.971Z,72.60
2023-05-12T11:00:45.836Z,74.49
2023-05-12T11:03:17.501Z,71.68
2023-05-12T11:05:47.224Z,73.50
2023-05-12T11:08:17.782Z,71.53
2023-05-12T11:10:46.985Z,72.03
2023-05-12T11:13:17.258Z,73.52
2023-05-12T11:16:52.090Z,73.79
2023-05-12T11:19:19.889Z,71.66
2023-05-12T11:21:47.699Z,69.58
2023-05-12T11:24:16.690Z,67.62
2023-05-12T11:26:44.469Z,68.95
2023-05-12T11:37:05.203Z,68.94
2023-05-12T11:39:32.928Z,68.86
2023-05-12T11:42:12.219Z,66.30
2023-05-12T11:44:47.828Z,68.35
2023-05-12T11:47:16.705Z,66.92
2023-05-12T11:49:56.535Z,65.87
2023-05-12T11:55:48.839Z,68.18
2023-05-12T11:58:20.681Z,66.09
2023-05-12T12:00:48.972Z,67.17
2023-05-12T12:03:17.511Z,63.90
2023-05-12T12:05:46.535Z,63.96
2023-05-12T12:08:15.640Z,60.69
2023-05-12T12:10:46.841Z,62.14
2023-05-12T12:13:20.514Z,62.94
2023-05-12T12:15:48.190Z,64.54
2023-05-12T12:18:16.556Z,62.63
2023-05-12T12:20:44.371Z,64.30
2023-05-12T12:23:11.972Z,64.67
2023-05-12T12:25:39.708Z,63.15
2023-05-12T12:28:09.048Z,62.42
2023-05-12T12:30:37.477Z,62.10
2023-05-12T12:33:05.249Z,62.99
2023-05-12T12:35:32.996Z,64.72
2023-05-12T12:38:00.770Z,62.30
2023-05-12T12:40:28.467Z,60.72
2023-05-12T12:42:56.198Z,63.25
2023-05-12T12:45:25.828Z,63.31
2023-05-12T12:47:54.865Z,61.48
2023-05-12T12:50:24.473Z,60.43
2023-05-12T12:52:53.619Z,59.99
2023-05-12T12:55:21.905Z,60.05
2023-05-12T12:57:49.837Z,62.24
2023-05-12T13:00:18.472Z,56.87
2023-05-12T13:02:47.820Z,60.45
2023-05-12T13:05:16.316Z,57.98
2023-05-12T13:07:44.147Z,56.83
2023-05-12T13:10:12.904Z,55.42
2023-05-12T13:12:41.028Z,54.08
2023-05-12T13:15:10.395Z,55.71
2023-05-12T13:17:38.142Z,56.55
2023-05-12T13:20:09.112Z,58.61
2023-05-12T13:22:36.854Z,57.52
2023-05-12T13:25:07.536Z,59.78
2023-05-12T13:27:35.543Z,59.82
2023-05-12T13:30:04.523Z,59.39
2023-05-12T13:32:34.726Z,59.98
2023-05-12T13:35:02.483Z,59.02
2023-05-12T13:37:31.654Z,60.44
2023-05-12T13:39:59.979Z,59.73
2023-05-12T13:42:27.771Z,60.27
2023-05-12T13:44:55.468Z,59.32
2023-05-12T13:47:23.394Z,59.92
2023-05-12T13:49:51.219Z,59.88
2023-05-12T13:52:18.947Z,60.48
2023-05-12T13:54:48.457Z,61.38
2023-05-12T13:57:16.248Z,62.20
2023-05-12T13:59:43.942Z,60.78
2023-05-12T14:02:13.824Z,59.93
2023-05-12T14:04:41.465Z,61.30
2023-05-12T14:07:09.420Z,62.91
2023-05-12T14:09:37.034Z,64.83
2023-05-12T14:12:06.504Z,65.82
2023-05-12T14:14:34.203Z,65.62
2023-05-12T14:17:01.819Z,63.61
2023-05-12T14:19:29.454Z,65.41
2023-05-12T14:21:56.975Z,65.68
2023-05-12T14:24:24.601Z,66.12
2023-05-12T14:26:52.576Z,66.13
2023-05-12T14:29:21.569Z,66.10
2023-05-12T14:31:49.065Z,65.97
2023-05-12T14:34:16.701Z,66.34
2023-05-12T14:36:44.185Z,66.88
2023-05-12T14:39:14.620Z,67.94
2023-05-12T14:41:43.163Z,67.43
2023-05-12T14:44:11.275Z,67.71
2023-05-12T14:46:40.225Z,64.95
2023-05-12T14:49:10.719Z,67.34
2023-05-12T14:51:38.270Z,66.46
2023-05-12T14:54:12.592Z,65.23
2023-05-12T14:56:49.697Z,64.28
2023-05-12T14:59:17.557Z,67.28
2023-05-12T15:01:46.643Z,66.91
2023-05-12T15:04:14.275Z,66.83
2023-05-12T15:06:41.736Z,66.22
2023-05-12T15:09:09.541Z,65.30
2023-05-12T15:11:37.651Z,66.89
2023-05-12T16:30:51.586Z,43.41
2023-05-12T16:33:19.525Z,43.71
2023-05-12T16:35:47.202Z,43.09
2023-05-12T16:38:14.828Z,43.83
2023-05-12T16:40:42.689Z,42.94
2023-05-12T16:43:10.398Z,42.15
2023-05-12T16:45:38.062Z,43.06
2023-05-12T16:48:07.339Z,43.83
2023-05-12T16:50:34.978Z,43.27
2023-05-12T16:53:02.660Z,43.34
2023-05-12T16:55:30.809Z,42.11
2023-05-12T16:57:58.492Z,42.49
2023-05-12T17:00:26.298Z,42.42
2023-05-12T17:04:46.598Z,42.18
2023-05-12T17:07:14.372Z,42.07
2023-05-12T17:09:42.141Z,41.93
2023-05-12T17:12:10.845Z,42.28
2023-05-12T17:14:38.613Z,43.71
2023-05-12T17:17:06.621Z,41.36
2023-05-12T17:19:34.638Z,42.58
2023-05-12T17:22:03.870Z,42.63
2023-05-12T17:24:31.789Z,42.43
2023-05-12T17:26:59.434Z,43.74
2023-05-12T17:29:27.166Z,42.48
2023-05-12T17:34:02.075Z,42.82
2023-05-12T17:36:29.926Z,42.20
2023-05-12T17:38:57.737Z,43.46
2023-05-12T17:41:28.318Z,42.54
2023-05-12T17:43:56.890Z,43.27
2023-05-12T17:46:24.811Z,42.75
2023-05-12T17:48:52.562Z,42.93
2023-05-12T17:51:22.986Z,44.19
2023-05-12T17:53:50.680Z,42.72
2023-05-12T18:00:09.357Z,41.59
2023-05-12T18:02:37.931Z,40.86
2023-05-12T18:05:07.431Z,42.27
2023-05-12T18:07:35.484Z,42.59
2023-05-12T18:10:03.101Z,43.17
2023-05-12T18:13:54.487Z,43.32
2023-05-12T18:16:28.370Z,42.86
2023-05-12T18:18:57.172Z,42.37
